Time;durP1;ratioP1;P1;durP2;ratioP2;P2;SDS_P1;SDS_P2;PMS_P1;PMS_P2;Temp;Humidity;BMP_temperature;BMP_pressure;BME280_temperature;BME280_humidity;BME280_pressure;Samples;Min_cycle;Max_cycle;Signal;HPM_P1;HPM_P2
2024/01/04 00:00:30;;;;;;;3.80;2.70;;;;;;;6.78;100.00;62692.94;5086090;28;20228;-77
2024/01/04 00:02:58;;;;;;;3.10;2.90;;;;;;;6.76;100.00;62696.47;5076551;28;20201;-78
2024/01/04 00:05:25;;;;;;;3.25;3.03;;;;;;;6.66;100.00;62685.63;5067199;28;20255;-77
2024/01/04 00:07:52;;;;;;;4.35;3.95;;;;;;;6.64;100.00;62681.03;5078230;28;20213;-77
2024/01/04 00:10:19;;;;;;;5.63;4.22;;;;;;;6.58;100.00;62672.84;5080117;28;20263;-76
2024/01/04 00:12:47;;;;;;;5.03;4.60;;;;;;;6.53;100.00;62670.22;5086422;28;20196;-76
2024/01/04 00:15:14;;;;;;;5.32;4.22;;;;;;;6.46;100.00;62659.94;5096747;28;20257;-77
2024/01/04 00:17:41;;;;;;;3.63;3.30;;;;;;;6.45;100.00;62658.91;5087349;28;20208;-77
2024/01/04 00:20:11;;;;;;;4.78;4.38;;;;;;;6.42;100.00;62658.34;5081639;28;20213;-78
2024/01/04 00:22:38;;;;;;;4.88;4.03;;;;;;;6.28;100.00;62641.88;5085462;28;20205;-77
2024/01/04 00:25:05;;;;;;;4.90;4.30;;;;;;;6.22;100.00;62640.25;5085115;28;20224;-78
2024/01/04 00:27:32;;;;;;;4.78;4.32;;;;;;;6.16;100.00;62637.09;5088844;28;20490;-77
2024/01/04 00:29:59;;;;;;;4.20;3.80;;;;;;;6.14;100.00;62632.00;5095571;28;20224;-76
2024/01/04 00:32:26;;;;;;;5.22;3.78;;;;;;;6.02;100.00;62619.63;5080023;28;20196;-77
2024/01/04 00:34:53;;;;;;;4.47;4.00;;;;;;;5.98;100.00;62608.44;5086277;28;20267;-76
2024/01/04 00:37:21;;;;;;;3.72;3.25;;;;;;;5.91;100.00;62608.28;5077360;28;20193;-77
2024/01/04 00:39:48;;;;;;;4.20;3.60;;;;;;;5.87;100.00;62599.13;5091817;28;20266;-76
2024/01/04 00:42:15;;;;;;;4.35;3.58;;;;;;;5.88;100.00;62601.19;5071882;28;20400;-77
2024/01/04 00:44:42;;;;;;;5.75;3.70;;;;;;;5.86;100.00;62596.09;5097722;28;20220;-76
2024/01/04 00:47:09;;;;;;;3.33;3.10;;;;;;;5.78;100.00;62595.91;5072987;28;20201;-78
2024/01/04 00:49:36;;;;;;;4.93;3.45;;;;;;;5.72;100.00;62587.22;5071030;28;20228;-77
2024/01/04 00:52:03;;;;;;;6.30;3.58;;;;;;;5.72;100.00;62586.69;5084212;28;20203;-77
2024/01/04 00:54:32;;;;;;;4.95;3.80;;;;;;;5.77;100.00;62589.31;5084741;28;20225;-77
2024/01/04 00:56:59;;;;;;;5.05;3.80;;;;;;;5.78;100.00;62590.84;5087446;28;20201;-77
2024/01/04 00:59:25;;;;;;;4.43;4.03;;;;;;;5.77;100.00;62592.38;5087687;28;20469;-77
2024/01/04 01:01:52;;;;;;;3.88;3.28;;;;;;;5.72;100.00;62584.16;5088014;28;20201;-77
2024/01/04 01:04:20;;;;;;;4.65;2.90;;;;;;;5.74;100.00;62586.22;5088787;28;20513;-76
2024/01/04 01:06:47;;;;;;;4.93;3.38;;;;;;;5.73;100.00;62585.19;5088341;28;20215;-76
2024/01/04 01:09:14;;;;;;;9.15;4.07;;;;;;;5.77;100.00;62591.84;5083427;28;20488;-78
2024/01/04 01:11:42;;;;;;;3.85;3.60;;;;;;;5.77;100.00;62589.31;5087321;28;20197;-77
2024/01/04 01:14:09;;;;;;;3.90;3.50;;;;;;;5.86;100.00;62603.66;5080312;28;20228;-77
2024/01/04 01:16:36;;;;;;;4.53;3.40;;;;;;;5.84;100.00;62599.06;5091261;28;20228;-77
2024/01/04 01:19:03;;;;;;;4.38;3.97;;;;;;;5.80;100.00;62594.94;5078222;28;20434;-79
2024/01/04 01:21:30;;;;;;;5.32;4.43;;;;;;;5.72;100.00;62586.69;5082623;28;20375;-77
2024/01/04 01:23:57;;;;;;;4.05;3.55;;;;;;;5.65;100.00;62576.94;5082732;28;20205;-75
2024/01/04 01:26:24;;;;;;;6.88;4.00;;;;;;;5.62;100.00;62576.91;5086002;28;20211;-77
2024/01/04 01:28:52;;;;;;;5.53;4.30;;;;;;;5.72;100.00;62584.69;5073618;28;20224;-77
2024/01/04 01:31:19;;;;;;;3.70;3.47;;;;;;;5.75;100.00;62595.34;5085013;28;20196;-77
2024/01/04 01:33:46;;;;;;;6.70;3.83;;;;;;;5.65;100.00;62580.00;5088125;28;20536;-77
2024/01/04 01:36:13;;;;;;;4.15;3.78;;;;;;;5.62;100.00;62576.38;5085712;28;20398;-77
2024/01/04 01:38:40;;;;;;;4.15;3.83;;;;;;;5.55;100.00;62569.69;5084846;28;20201;-76
2024/01/04 01:41:07;;;;;;;4.88;4.20;;;;;;;5.60;100.00;62576.84;5079110;28;20201;-77
2024/01/04 01:43:34;;;;;;;5.68;4.05;;;;;;;5.53;100.00;62567.13;5087296;28;20212;-76
2024/01/04 01:46:03;;;;;;;6.80;3.92;;;;;;;5.55;100.00;62567.19;5082331;28;20225;-76
2024/01/04 01:48:30;;;;;;;4.97;4.05;;;;;;;5.55;100.00;62569.19;5077365;28;20201;-76
2024/01/04 01:50:57;;;;;;;4.25;3.85;;;;;;;5.61;100.00;62575.88;5086892;28;20231;-76
2024/01/04 01:53:24;;;;;;;6.88;3.97;;;;;;;5.68;100.00;62574.97;5081530;28;20228;-74
2024/01/04 01:55:51;;;;;;;4.28;3.97;;;;;;;5.76;100.00;62590.81;5088307;28;20267;-77
2024/01/04 01:58:19;;;;;;;4.45;4.05;;;;;;;5.78;100.00;62587.84;5087547;28;20200;-79
2024/01/04 02:00:46;;;;;;;4.63;4.22;;;;;;;5.83;100.00;62600.59;5088845;28;20235;-76
2024/01/04 02:03:14;;;;;;;4.85;4.30;;;;;;;5.87;100.00;62599.63;5090578;28;20280;-77
2024/01/04 02:05:41;;;;;;;4.10;3.50;;;;;;;5.88;100.00;62597.63;5077148;28;20334;-77
2024/01/04 02:08:07;;;;;;;4.65;3.65;;;;;;;5.95;100.00;62610.41;5084745;28;20532;-77
2024/01/04 02:10:34;;;;;;;4.40;3.33;;;;;;;6.05;100.00;62618.19;5077694;28;20231;-76
2024/01/04 02:13:01;;;;;;;2.85;2.60;;;;;;;6.11;100.00;62629.44;5084120;28;20200;-78
2024/01/04 02:15:28;;;;;;;3.15;2.95;;;;;;;6.18;100.00;62631.09;5087477;28;20236;-76
2024/01/04 02:17:55;;;;;;;4.28;2.95;;;;;;;6.25;100.00;62636.28;5083542;28;20200;-78
2024/01/04 02:20:23;;;;;;;3.75;1.40;;;;;;;6.39;100.00;62653.25;5086811;28;20266;-78
2024/01/04 02:22:52;;;;;;;1.20;1.10;;;;;;;6.49;100.00;62666.06;5088930;28;20211;-77
2024/01/04 02:25:19;;;;;;;1.85;1.75;;;;;;;6.57;100.00;62671.28;5090793;28;20229;-77
2024/01/04 02:27:46;;;;;;;2.53;2.30;;;;;;;6.62;100.00;62679.50;5075043;28;20196;-76
2024/01/04 02:30:13;;;;;;;2.80;2.60;;;;;;;6.64;100.00;62681.03;5087058;28;20229;-77
2024/01/04 02:32:40;;;;;;;2.92;2.67;;;;;;;6.67;100.00;62684.13;5087119;28;20361;-76
2024/01/04 02:35:07;;;;;;;3.80;2.72;;;;;;;6.58;100.00;62672.31;5084307;28;20252;-78
2024/01/04 02:37:34;;;;;;;4.13;2.70;;;;;;;6.53;100.00;62667.69;5086923;28;20219;-77
2024/01/04 02:40:03;;;;;;;4.03;2.70;;;;;;;6.54;100.00;62665.66;5087294;28;20212;-76
2024/01/04 02:42:31;;;;;;;8.35;3.25;;;;;;;6.60;100.00;62676.91;5078847;28;20217;-76
2024/01/04 02:44:58;;;;;;;5.20;3.10;;;;;;;6.58;100.00;62677.38;5077916;28;20221;-76
2024/01/04 02:47:25;;;;;;;3.17;2.75;;;;;;;6.54;100.00;62670.72;5089038;28;20270;-78
2024/01/04 02:49:52;;;;;;;2.80;2.60;;;;;;;6.50;100.00;62666.59;5085243;28;20270;-77
2024/01/04 02:52:19;;;;;;;3.10;2.22;;;;;;;6.42;100.00;62655.81;5084356;28;20209;-78
2024/01/04 02:54:46;;;;;;;2.58;1.95;;;;;;;6.38;100.00;62652.22;5081362;28;20225;-77
2024/01/04 02:57:15;;;;;;;2.28;2.17;;;;;;;6.47;100.00;62663.50;5087549;28;20282;-77
2024/01/04 02:59:41;;;;;;;3.45;2.42;;;;;;;6.47;100.00;62664.00;5086070;28;20228;-77
2024/01/04 03:02:08;;;;;;;1.27;1.27;;;;;;;6.73;100.00;62688.28;5081687;28;20214;-76
2024/01/04 03:04:36;;;;;;;2.10;1.08;;;;;;;6.81;100.00;62696.03;5076169;28;20231;-77
2024/01/04 03:07:03;;;;;;;2.22;1.00;;;;;;;7.16;100.00;62729.63;5084993;28;20207;-76
2024/01/04 03:09:30;;;;;;;1.33;0.70;;;;;;;7.41;100.00;62759.94;5081523;28;20217;-76
2024/01/04 03:11:57;;;;;;;0.60;0.60;;;;;;;7.42;100.00;62758.97;5066537;28;20243;-76
2024/01/04 03:14:25;;;;;;;0.75;0.75;;;;;;;7.60;100.00;62777.53;5084258;28;20228;-75
2024/01/04 03:16:52;;;;;;;3.45;2.15;;;;;;;7.55;100.00;62777.47;5083266;28;20232;-76
2024/01/04 03:19:19;;;;;;;3.35;2.10;;;;;;;7.50;100.00;62766.72;5084991;28;20220;-77
2024/01/04 03:21:46;;;;;;;1.70;1.60;;;;;;;7.35;100.00;62754.28;5082292;28;20234;-77
2024/01/04 03:24:12;;;;;;;2.55;1.73;;;;;;;7.22;100.00;62740.34;5083465;28;20240;-77
2024/01/04 03:26:39;;;;;;;2.03;1.92;;;;;;;7.25;100.00;62743.94;5110114;28;20203;-78
2024/01/04 03:29:06;;;;;;;2.25;2.10;;;;;;;7.12;100.00;62728.00;5079231;28;20225;-76
2024/01/04 03:31:34;;;;;;;4.43;3.30;;;;;;;6.59;100.00;62683.97;5078348;28;20415;-77
2024/01/04 03:34:01;;;;;;;4.38;3.20;;;;;;;6.48;100.00;62665.06;5071077;28;20236;-77
2024/01/04 03:36:28;;;;;;;3.55;3.25;;;;;;;6.45;100.00;62663.97;5078594;28;20521;-76
2024/01/04 03:38:55;;;;;;;3.88;3.58;;;;;;;6.30;100.00;62640.94;5082960;28;20211;-76
2024/01/04 03:41:22;;;;;;;4.50;3.13;;;;;;;5.88;100.00;62602.69;5079052;28;20207;-76
2024/01/04 03:43:49;;;;;;;5.40;4.13;;;;;;;5.76;100.00;62591.31;5084760;28;20208;-76
2024/01/04 03:46:16;;;;;;;3.65;3.20;;;;;;;5.75;100.00;62587.78;5082901;28;20211;-75
2024/01/04 03:48:44;;;;;;;5.47;3.28;;;;;;;5.74;100.00;62586.75;5080185;28;20518;-75
2024/01/04 03:51:12;;;;;;;4.00;3.15;;;;;;;5.58;100.00;62572.25;5085666;28;20205;-76
2024/01/04 03:53:39;;;;;;;5.13;4.50;;;;;;;5.41;100.00;62555.28;5085238;28;20251;-76
2024/01/04 03:56:06;;;;;;;4.72;3.83;;;;;;;5.40;100.00;62551.72;5084015;28;20242;-76
2024/01/04 03:58:34;;;;;;;3.78;3.22;;;;;;;5.44;100.00;62557.84;5091221;28;20209;-76
2024/01/04 04:01:02;;;;;;;5.25;3.50;;;;;;;5.41;100.00;62554.75;5087249;28;20248;-76
2024/01/04 04:03:29;;;;;;;5.25;3.50;;;;;;;5.39;100.00;62555.72;5074858;28;20552;-77
2024/01/04 04:05:57;;;;;;;10.38;3.90;;;;;;;5.30;100.00;62543.94;5080891;28;20232;-77
2024/01/04 04:08:24;;;;;;;7.57;4.03;;;;;;;5.27;100.00;62537.81;5086676;28;20272;-76
2024/01/04 04:10:51;;;;;;;6.05;4.22;;;;;;;5.22;100.00;62538.22;5071272;28;20291;-76
2024/01/04 04:13:18;;;;;;;4.15;3.80;;;;;;;5.16;100.00;62526.50;5085399;28;20211;-76
2024/01/04 04:15:45;;;;;;;4.32;3.80;;;;;;;5.13;100.00;62526.44;5085290;28;20299;-76
2024/01/04 04:18:12;;;;;;;3.72;3.35;;;;;;;5.04;100.00;62514.13;5081270;28;20218;-76
2024/01/04 04:20:39;;;;;;;4.88;3.28;;;;;;;4.99;100.00;62511.50;5070451;28;20450;-77
2024/01/04 04:23:07;;;;;;;3.92;3.30;;;;;;;4.84;100.00;62496.06;5074693;28;20260;-76
2024/01/04 04:25:36;;;;;;;5.40;3.78;;;;;;;4.77;100.00;62486.31;5082655;28;20392;-77
2024/01/04 04:28:03;;;;;;;4.75;3.45;;;;;;;4.70;100.00;62484.69;5082909;28;20205;-76
2024/01/04 04:30:29;;;;;;;14.40;4.32;;;;;;;4.72;100.00;62481.69;5082703;28;20243;-76
2024/01/04 04:32:57;;;;;;;9.43;4.28;;;;;;;4.88;100.00;62502.69;5084975;28;20267;-77
2024/01/04 04:35:23;;;;;;;4.85;4.13;;;;;;;4.94;100.00;62506.88;5088934;28;20228;-77
2024/01/04 04:37:50;;;;;;;3.80;3.53;;;;;;;4.91;100.00;62503.78;5083601;28;20288;-75
2024/01/04 04:40:19;;;;;;;5.13;3.20;;;;;;;4.94;100.00;62506.34;5087369;28;20279;-75
2024/01/04 04:42:45;;;;;;;10.25;2.92;;;;;;;5.00;100.00;62512.53;5090054;28;20513;-76
2024/01/04 04:45:12;;;;;;;4.28;3.88;;;;;;;4.91;100.00;62505.78;5089561;28;20270;-77
2024/01/04 04:47:39;;;;;;;7.38;3.90;;;;;;;5.04;100.00;62516.66;5081627;28;20197;-77
2024/01/04 04:50:08;;;;;;;4.85;2.95;;;;;;;5.12;100.00;62519.84;5081407;28;20246;-77
2024/01/04 04:52:34;;;;;;;5.53;3.08;;;;;;;5.12;100.00;62522.38;5090470;28;20204;-77
2024/01/04 04:55:02;;;;;;;3.67;3.33;;;;;;;5.22;100.00;62530.13;5082078;28;20235;-76
2024/01/04 04:57:29;;;;;;;3.30;3.00;;;;;;;5.22;100.00;62537.72;5088518;28;20232;-77
2024/01/04 04:59:55;;;;;;;4.10;2.80;;;;;;;5.18;100.00;62531.06;5085742;28;20300;-76
2024/01/04 05:02:22;;;;;;;5.15;3.30;;;;;;;5.22;100.00;62530.66;5090321;28;20204;-77
2024/01/04 05:04:49;;;;;;;3.38;3.13;;;;;;;5.23;100.00;62533.69;5088422;28;20575;-76
2024/01/04 05:07:16;;;;;;;6.72;3.22;;;;;;;5.25;100.00;62535.75;5086424;28;20223;-78
2024/01/04 05:09:43;;;;;;;7.90;3.60;;;;;;;5.23;100.00;62536.72;5084473;28;20236;-77
2024/01/04 05:12:09;;;;;;;3.63;2.95;;;;;;;5.15;100.00;62523.44;5087521;28;20231;-76
2024/01/04 05:14:38;;;;;;;5.40;3.45;;;;;;;5.08;100.00;62516.22;5085915;28;20224;-76
2024/01/04 05:17:05;;;;;;;3.15;2.85;;;;;;;5.08;100.00;62518.25;5099704;28;20257;-76
2024/01/04 05:19:32;;;;;;;3.25;2.92;;;;;;;5.09;100.00;62519.78;5091093;28;20216;-77
2024/01/04 05:22:03;;;;;;;2.90;2.70;;;;;;;5.02;100.00;62517.63;5100555;28;20202;-76
2024/01/04 05:24:30;;;;;;;3.78;3.35;;;;;;;4.94;100.00;62506.88;5079117;28;20235;-76
2024/01/04 05:26:56;;;;;;;2.95;2.75;;;;;;;4.89;100.00;62499.19;5082518;28;20266;-75
2024/01/04 05:29:25;;;;;;;3.22;2.92;;;;;;;4.95;100.00;62505.38;5086313;28;20538;-76
2024/01/04 05:31:53;;;;;;;4.45;2.85;;;;;;;4.94;100.00;62506.88;5079186;28;20202;-76
2024/01/04 05:34:20;;;;;;;6.43;3.40;;;;;;;5.00;100.00;62513.06;5076358;28;20224;-76
2024/01/04 05:36:47;;;;;;;6.20;3.10;;;;;;;5.03;100.00;62513.09;5087909;28;20269;-77
2024/01/04 05:39:14;;;;;;;5.30;3.15;;;;;;;5.04;100.00;62514.63;5102081;28;20262;-76
2024/01/04 05:41:41;;;;;;;4.65;3.95;;;;;;;5.15;100.00;62531.00;5089632;28;20232;-77
2024/01/04 05:44:08;;;;;;;7.78;4.40;;;;;;;5.09;100.00;62522.31;5090768;28;20232;-77
2024/01/04 05:46:35;;;;;;;7.20;4.32;;;;;;;5.21;100.00;62534.16;5087242;28;20302;-76
2024/01/04 05:49:03;;;;;;;7.35;5.90;;;;;;;5.19;100.00;62532.09;5102474;28;20228;-76
2024/01/04 05:51:30;;;;;;;12.27;6.50;;;;;;;5.15;100.00;62525.97;5090269;28;20262;-77
2024/01/04 05:53:57;;;;;;;11.75;6.68;;;;;;;5.10;100.00;62523.34;5090230;28;20248;-77
2024/01/04 05:56:23;;;;;;;17.90;7.10;;;;;;;5.10;100.00;62520.31;5101872;28;20232;-76
2024/01/04 05:58:50;;;;;;;7.13;4.85;;;;;;;5.04;100.00;62516.66;5089511;28;20261;-76
2024/01/04 06:01:17;;;;;;;6.05;3.78;;;;;;;5.12;100.00;62522.88;5089588;28;20219;-77
2024/01/04 06:03:44;;;;;;;5.03;4.53;;;;;;;5.08;100.00;62515.72;5083230;28;20201;-77
2024/01/04 06:06:15;;;;;;;3.60;2.30;;;;;;;5.05;100.00;62523.25;5082469;28;20245;-77
2024/01/04 06:08:41;;;;;;;13.45;6.65;;;;;;;5.11;100.00;62524.38;5086606;28;20234;-75
2024/01/04 06:11:08;;;;;;;4.05;2.70;;;;;;;5.30;100.00;62545.94;5076359;28;20488;-76
2024/01/04 06:13:35;;;;;;;2.60;2.40;;;;;;;5.37;100.00;62546.09;5099681;28;20207;-78
2024/01/04 06:16:06;;;;;;;3.95;1.90;;;;;;;5.42;100.00;62558.81;5084011;28;20227;-76
2024/01/04 06:18:33;;;;;;;5.20;2.22;;;;;;;5.44;100.00;62555.84;5094956;28;20205;-77
2024/01/04 06:21:00;;;;;;;3.58;2.60;;;;;;;5.56;100.00;62570.72;5084751;28;20254;-78
2024/01/04 06:23:29;;;;;;;4.55;3.33;;;;;;;5.67;100.00;62579.00;5074977;28;20227;-77
2024/01/04 06:25:56;;;;;;;2.70;2.50;;;;;;;5.65;100.00;62579.47;5076616;28;20292;-76
2024/01/04 06:28:23;;;;;;;4.22;3.63;;;;;;;5.70;100.00;62579.56;5089022;28;20558;-77
2024/01/04 06:30:50;;;;;;;7.95;3.70;;;;;;;5.76;100.00;62593.34;5086733;28;20217;-76
2024/01/04 06:33:17;;;;;;;4.53;3.15;;;;;;;5.80;100.00;62597.97;5094087;28;20215;-76
2024/01/04 06:35:44;;;;;;;3.40;3.20;;;;;;;5.86;100.00;62601.13;5084963;28;20221;-77
2024/01/04 06:38:11;;;;;;;4.25;3.28;;;;;;;5.99;100.00;62614.03;5084174;28;20273;-76
2024/01/04 06:40:40;;;;;;;3.45;3.15;;;;;;;6.05;100.00;62618.19;5082630;28;20224;-78
2024/01/04 06:43:09;;;;;;;4.50;3.42;;;;;;;6.14;100.00;62627.47;5085931;28;20208;-77
2024/01/04 06:45:36;;;;;;;5.40;3.60;;;;;;;6.19;100.00;62635.16;5087748;28;20225;-77
2024/01/04 06:48:03;;;;;;;3.33;2.70;;;;;;;6.28;100.00;62644.41;5083896;28;20222;-77
2024/01/04 06:50:31;;;;;;;7.03;3.20;;;;;;;6.38;100.00;62651.69;5087067;28;20510;-77
2024/01/04 06:52:58;;;;;;;3.75;3.03;;;;;;;6.43;100.00;62659.38;5092112;28;20226;-77
2024/01/04 06:55:25;;;;;;;4.13;2.78;;;;;;;6.58;100.00;62672.84;5080186;28;20522;-77
2024/01/04 06:57:53;;;;;;;4.45;3.20;;;;;;;6.74;100.00;62691.88;5078922;28;20244;-77
2024/01/04 07:00:20;;;;;;;3.22;2.92;;;;;;;6.79;100.00;62693.97;5084056;28;20255;-77
2024/01/04 07:02:47;;;;;;;3.03;2.75;;;;;;;6.87;100.00;62702.75;5088115;28;20204;-78
2024/01/04 07:05:14;;;;;;;8.55;5.68;;;;;;;7.00;100.00;62720.69;5081729;28;20259;-76
2024/01/04 07:07:41;;;;;;;10.43;6.43;;;;;;;7.16;100.00;62734.69;5082852;28;20200;-78
2024/01/04 07:10:10;;;;;;;7.60;5.15;;;;;;;7.25;100.00;62741.41;5084393;28;20216;-77
2024/01/04 07:12:37;;;;;;;4.82;3.70;;;;;;;7.40;100.00;62758.94;5077737;28;20204;-77
2024/01/04 07:15:06;;;;;;;3.85;3.47;;;;;;;7.53;100.00;62772.84;5085911;28;20274;-77
2024/01/04 07:17:33;;;;;;;3.17;2.85;;;;;;;7.64;100.00;62783.69;5085109;28;20282;-78
2024/01/04 07:20:00;;;;;;;2.60;2.40;;;;;;;7.81;100.00;62799.22;5083777;28;20247;-77
2024/01/04 07:22:27;;;;;;;3.25;2.88;;;;;;;7.87;100.00;62807.94;5084067;28;20227;-77
2024/01/04 07:24:56;;;;;;;3.58;2.85;;;;;;;8.05;100.00;62824.00;5079148;28;20230;-76
2024/01/04 07:27:22;;;;;;;5.20;3.30;;;;;;;8.16;100.00;62837.38;5078143;28;20228;-77
2024/01/04 07:29:49;;;;;;;2.97;2.60;;;;;;;8.28;100.00;62851.81;5088221;28;20219;-78
2024/01/04 07:32:18;;;;;;;3.65;2.53;;;;;;;8.43;100.00;62862.75;5085982;28;20242;-78
2024/01/04 07:34:45;;;;;;;3.05;2.45;;;;;;;8.55;100.00;62877.16;5084342;28;20228;-79
2024/01/04 07:39:49;;;;;;;4.43;2.00;;;;;;;8.73;100.00;62898.31;5072317;27;20442;-77
2024/01/04 07:42:15;;;;;;;2.10;2.00;;;;;;;8.65;100.00;62887.50;5112930;28;20207;-78
2024/01/04 07:44:43;;;;;;;5.45;2.58;;;;;;;8.66;100.00;62883.97;5105399;28;20220;-78
2024/01/04 07:47:09;;;;;;;3.13;2.45;;;;;;;8.75;100.00;62895.31;5113346;28;20288;-76
2024/01/04 07:49:37;;;;;;;2.50;2.30;;;;;;;8.81;100.00;62902.00;5113450;28;20227;-77
2024/01/04 07:52:04;;;;;;;2.55;2.35;;;;;;;8.90;100.00;62908.25;5111748;28;20271;-78
2024/01/04 07:54:31;;;;;;;2.08;1.95;;;;;;;8.88;100.00;62908.72;5111576;28;20220;-77
2024/01/04 07:57:00;;;;;;;2.03;1.92;;;;;;;9.05;100.00;62928.84;5117328;28;20408;-78
2024/01/04 07:59:28;;;;;;;2.13;1.67;;;;;;;9.09;100.00;62933.47;5116512;28;20226;-78
2024/01/04 08:01:54;;;;;;;1.85;1.75;;;;;;;8.97;100.00;62915.50;5121841;28;20305;-77
2024/01/04 08:04:22;;;;;;;3.55;3.03;;;;;;;8.96;100.00;62919.53;5111621;28;20216;-78
2024/01/04 08:06:50;;;;;;;6.95;2.65;;;;;;;9.04;100.00;62925.78;5111073;28;20211;-79
2024/01/04 08:09:18;;;;;;;3.25;2.30;;;;;;;9.02;100.00;62928.28;5112640;28;20211;-77
2024/01/04 08:11:45;;;;;;;4.72;2.10;;;;;;;9.10;100.00;62931.97;5115435;28;20294;-78
2024/01/04 08:14:14;;;;;;;2.42;2.25;;;;;;;9.21;100.00;62947.91;5117033;28;20696;-77
2024/01/04 08:16:41;;;;;;;6.93;3.17;;;;;;;9.27;100.00;62952.09;5113750;28;20200;-77
2024/01/04 08:19:09;;;;;;;2.28;2.08;;;;;;;9.36;100.00;62958.34;5114561;28;20235;-78
2024/01/04 08:21:35;;;;;;;2.83;2.17;;;;;;;9.30;100.00;62957.22;5113961;28;20215;-77
2024/01/04 08:24:03;;;;;;;3.05;2.42;;;;;;;9.11;100.00;62940.63;5108605;28;20211;-76
2024/01/04 08:26:30;;;;;;;3.05;2.45;;;;;;;9.20;100.00;62946.88;5113343;28;20212;-77
2024/01/04 08:28:57;;;;;;;5.68;2.63;;;;;;;9.21;100.00;62945.88;5107750;28;20538;-78
2024/01/04 08:31:25;;;;;;;2.88;2.42;;;;;;;9.14;100.00;62935.59;5111308;28;20197;-78
2024/01/04 08:33:52;;;;;;;3.65;2.70;;;;;;;9.13;100.00;62934.56;5115396;28;20195;-76
2024/01/04 08:36:19;;;;;;;2.53;2.30;;;;;;;9.14;100.00;62935.59;5121851;28;20241;-78
2024/01/04 08:38:46;;;;;;;3.45;2.22;;;;;;;9.12;100.00;62934.06;5129217;28;20279;-77
2024/01/04 08:41:13;;;;;;;2.63;2.10;;;;;;;9.22;100.00;62944.38;5125356;28;20199;-77
2024/01/04 08:43:40;;;;;;;2.30;2.20;;;;;;;9.29;100.00;62954.16;5124919;28;20401;-77
2024/01/04 08:46:07;;;;;;;3.45;2.70;;;;;;;9.38;100.00;62959.88;5130768;28;20200;-78
2024/01/04 08:48:35;;;;;;;4.18;2.85;;;;;;;9.49;100.00;62971.25;5125785;28;20222;-77
2024/01/04 08:51:03;;;;;;;7.30;2.35;;;;;;;9.51;100.00;62978.41;5118367;28;20223;-78
2024/01/04 08:53:30;;;;;;;3.45;2.58;;;;;;;9.49;100.00;62971.25;5112192;28;20196;-78
2024/01/04 08:55:56;;;;;;;3.20;2.85;;;;;;;9.47;100.00;62969.72;5099273;28;20253;-78
2024/01/04 08:58:23;;;;;;;5.00;3.00;;;;;;;9.59;100.00;62986.69;5105345;28;20257;-79
2024/01/04 09:00:50;;;;;;;3.90;3.45;;;;;;;9.58;98.34;62985.66;5109234;28;20211;-78
2024/01/04 09:03:18;;;;;;;3.60;3.28;;;;;;;9.56;100.00;62979.00;5106752;28;20200;-79
2024/01/04 09:05:46;;;;;;;4.72;2.88;;;;;;;9.69;99.45;62994.47;5107103;28;20220;-80
2024/01/04 09:08:13;;;;;;;3.72;3.40;;;;;;;9.71;100.00;63001.63;5111306;28;20231;-78
2024/01/04 09:10:40;;;;;;;4.93;3.38;;;;;;;9.82;100.00;63010.97;5111202;28;20220;-77
2024/01/04 09:13:07;;;;;;;3.28;2.58;;;;;;;9.68;97.89;62993.97;5109033;28;20256;-77
2024/01/04 09:15:34;;;;;;;3.10;2.80;;;;;;;9.58;99.52;62986.16;5109231;28;20269;-78
2024/01/04 09:18:01;;;;;;;3.92;3.53;;;;;;;9.79;100.00;63002.28;5105598;28;20264;-77
2024/01/04 09:20:28;;;;;;;5.63;3.25;;;;;;;9.44;98.46;62971.19;5103510;28;20216;-79
2024/01/04 09:22:56;;;;;;;3.10;2.85;;;;;;;9.44;99.99;62971.19;5109611;28;20222;-78
2024/01/04 09:25:23;;;;;;;3.03;2.83;;;;;;;9.42;100.00;62964.03;5102032;28;20227;-79
2024/01/04 09:27:50;;;;;;;3.35;2.60;;;;;;;9.58;100.00;62985.66;5102494;28;20201;-78
2024/01/04 09:30:18;;;;;;;3.03;2.72;;;;;;;9.54;99.34;62979.50;5101960;28;20262;-77
2024/01/04 09:32:45;;;;;;;5.45;2.75;;;;;;;9.46;99.57;62973.75;5106773;28;20233;-77
2024/01/04 09:35:12;;;;;;;2.80;2.60;;;;;;;9.56;99.35;62979.00;5108045;28;20572;-77
2024/01/04 09:37:40;;;;;;;2.85;2.60;;;;;;;9.51;99.27;62973.34;5104647;28;20208;-78
2024/01/04 09:40:09;;;;;;;4.97;3.05;;;;;;;9.56;99.59;62984.09;5115979;28;20243;-77
2024/01/04 09:42:38;;;;;;;3.33;2.38;;;;;;;9.65;99.35;62990.34;5106746;28;20200;-79
2024/01/04 09:45:06;;;;;;;2.92;2.72;;;;;;;9.67;97.74;62995.47;5106646;28;20223;-80
2024/01/04 09:47:33;;;;;;;3.92;3.17;;;;;;;9.75;97.47;62996.13;5108338;28;20262;-78
2024/01/04 09:50:00;;;;;;;3.05;2.75;;;;;;;9.92;97.85;63016.25;5107797;28;20216;-78
2024/01/04 09:52:27;;;;;;;2.78;2.50;;;;;;;9.89;95.20;63015.16;5104255;28;20235;-78
2024/01/04 09:54:54;;;;;;;2.40;2.20;;;;;;;10.02;95.09;63029.13;5109747;28;20535;-80
2024/01/04 09:57:22;;;;;;;2.72;2.20;;;;;;;10.17;95.97;63047.22;5119352;28;20538;-78
2024/01/04 09:59:50;;;;;;;4.28;2.50;;;;;;;10.33;93.24;63060.72;5112427;28;20260;-79
2024/01/04 10:02:17;;;;;;;2.55;2.35;;;;;;;10.30;93.83;63060.66;5110771;28;20210;-79
2024/01/04 10:04:44;;;;;;;2.72;2.00;;;;;;;10.32;92.18;63060.19;5109676;28;20247;-79
2024/01/04 10:07:11;;;;;;;4.53;2.30;;;;;;;10.49;92.62;63077.78;5108299;28;20199;-79
2024/01/04 10:09:41;;;;;;;3.30;2.30;;;;;;;10.45;91.24;63071.09;5110944;28;20251;-78
2024/01/04 10:12:08;;;;;;;3.53;2.50;;;;;;;10.47;91.18;63072.66;5114442;28;20206;-79
2024/01/04 10:14:37;;;;;;;4.93;2.22;;;;;;;10.72;89.74;63098.00;5108734;28;20220;-79
2024/01/04 10:17:04;;;;;;;2.58;2.38;;;;;;;10.85;88.25;63114.53;5109101;28;20235;-78
2024/01/04 10:19:32;;;;;;;2.40;2.03;;;;;;;10.83;88.26;63111.94;5113263;28;20254;-79
2024/01/04 10:22:02;;;;;;;3.30;3.00;;;;;;;10.53;88.23;63081.41;5121733;28;20363;-80
2024/01/04 10:24:30;;;;;;;4.20;2.13;;;;;;;10.59;88.95;63087.09;5109951;28;20261;-79
2024/01/04 10:26:57;;;;;;;4.28;2.60;;;;;;;10.58;87.24;63083.53;5113266;28;20215;-79
2024/01/04 10:29:25;;;;;;;3.30;2.17;;;;;;;10.43;89.54;63071.56;5121006;28;20500;-79
2024/01/04 10:32:00;;;;;;;2.67;2.47;;;;;;;10.62;89.82;63090.72;5120068;28;20229;-79
2024/01/04 10:34:27;;;;;;;3.22;3.00;;;;;;;10.80;88.01;63106.28;5110041;28;20306;-79
2024/01/04 10:36:56;;;;;;;2.88;2.38;;;;;;;10.84;85.69;63112.97;5109657;28;20307;-79
2024/01/04 10:39:23;;;;;;;2.90;2.70;;;;;;;10.61;86.32;63092.25;5118132;28;20231;-79
2024/01/04 10:41:59;;;;;;;6.47;2.30;;;;;;;10.61;86.58;63089.69;5114884;28;20192;-78
2024/01/04 10:44:26;;;;;;;3.85;2.25;;;;;;;10.70;87.66;63096.44;5124337;28;20222;-79
2024/01/04 10:46:56;;;;;;;5.70;3.97;;;;;;;10.83;87.65;63104.28;5114483;28;20302;-78
2024/01/04 10:49:25;;;;;;;4.10;3.22;;;;;;;11.08;86.66;63140.38;5110190;28;20246;-79
2024/01/04 10:51:53;;;;;;;2.28;2.17;;;;;;;11.20;85.64;63150.25;5104680;28;20264;-78
2024/01/04 10:54:20;;;;;;;2.67;2.50;;;;;;;11.37;84.88;63165.31;5104407;28;20220;-78
2024/01/04 10:56:47;;;;;;;5.30;2.72;;;;;;;11.50;81.11;63183.88;5121210;28;20203;-78
2024/01/04 10:59:14;;;;;;;4.95;3.10;;;;;;;11.51;82.07;63182.34;5116023;28;20239;-77
2024/01/04 11:01:41;;;;;;;3.15;2.92;;;;;;;11.55;81.37;63189.03;5105883;28;20232;-77
2024/01/04 11:04:08;;;;;;;3.13;2.92;;;;;;;11.48;82.04;63179.25;5101571;28;20223;-78
2024/01/04 11:06:40;;;;;;;5.03;3.28;;;;;;;11.40;83.08;63173.50;5115486;28;20203;-78
2024/01/04 11:09:07;;;;;;;8.75;4.22;;;;;;;11.67;82.95;63198.41;5105770;28;20216;-78
2024/01/04 11:11:35;;;;;;;5.43;3.78;;;;;;;11.87;84.38;63219.69;5106521;28;20218;-80
2024/01/04 11:14:02;;;;;;;9.35;6.20;;;;;;;12.10;82.62;63240.44;5107254;28;20235;-78
2024/01/04 11:16:38;;;;;;;9.75;4.43;;;;;;;12.28;82.10;63262.16;5107617;28;20213;-79
2024/01/04 11:19:21;;;;;;;8.02;3.63;;;;;;;12.66;77.27;63301.03;5107901;28;20237;-78
2024/01/04 11:22:08;;;;;;;5.05;3.30;;;;;;;12.78;74.24;63313.47;5118423;28;20195;-78
2024/01/04 11:24:41;;;;;;;4.20;3.78;;;;;;;13.08;73.30;63341.53;5116385;28;20524;-79
2024/01/04 11:27:09;;;;;;;5.03;3.75;;;;;;;13.24;72.25;63360.69;5109304;28;20211;-79
2024/01/04 11:29:36;;;;;;;5.50;3.58;;;;;;;13.31;69.59;63368.47;5106427;28;20435;-79
2024/01/04 11:32:03;;;;;;;5.35;4.22;;;;;;;13.26;69.78;63365.84;5104374;28;20264;-79
2024/01/04 11:34:30;;;;;;;9.15;4.18;;;;;;;13.26;70.48;63365.31;5096928;28;20219;-79
2024/01/04 11:37:12;;;;;;;5.60;3.92;;;;;;;13.30;69.77;63364.38;5101652;28;20204;-77